createdAt,value
2017-12-03T00:01:29.590Z,8.60
2017-12-03T00:04:03.070Z,8.00
2017-12-03T00:06:35.863Z,7.57
2017-12-03T00:09:09.163Z,9.47
2017-12-03T00:11:42.533Z,6.50
2017-12-03T00:14:15.043Z,7.53
2017-12-03T00:16:49.065Z,7.90
2017-12-03T00:19:22.035Z,8.60
2017-12-03T00:21:55.274Z,6.80
2017-12-03T00:24:28.011Z,9.00
2017-12-03T00:27:01.169Z,7.40
2017-12-03T00:29:33.721Z,8.60
2017-12-03T00:32:06.346Z,9.47
2017-12-03T00:34:38.843Z,11.27
2017-12-03T00:37:11.257Z,12.03
2017-12-03T00:39:43.717Z,9.80
2017-12-03T00:42:16.214Z,11.17
2017-12-03T00:44:48.904Z,10.23
2017-12-03T00:47:21.371Z,7.93
2017-12-03T00:49:53.862Z,7.80
2017-12-03T00:52:26.573Z,6.33
2017-12-03T00:54:59.159Z,7.03
2017-12-03T00:57:31.729Z,10.00
2017-12-03T01:00:04.195Z,9.00
2017-12-03T01:02:36.655Z,8.67
2017-12-03T01:05:09.304Z,8.20
2017-12-03T01:07:42.691Z,6.03
2017-12-03T01:10:15.276Z,7.43
2017-12-03T01:12:48.639Z,6.63
2017-12-03T01:15:21.223Z,6.90
2017-12-03T01:17:54.438Z,7.40
2017-12-03T01:20:27.267Z,7.70
2017-12-03T01:23:00.272Z,7.77
2017-12-03T01:25:32.788Z,7.07
2017-12-03T01:28:06.180Z,6.47
2017-12-03T01:30:39.015Z,6.77
2017-12-03T01:33:11.544Z,7.90
2017-12-03T01:35:43.988Z,7.70
2017-12-03T01:38:16.422Z,7.43
2017-12-03T01:40:48.935Z,6.40
2017-12-03T01:43:23.023Z,6.57
2017-12-03T01:45:55.711Z,7.10
2017-12-03T01:48:28.153Z,8.43
2017-12-03T01:51:00.799Z,9.20
2017-12-03T01:53:34.873Z,8.30
2017-12-03T01:56:07.605Z,8.10
2017-12-03T01:58:41.032Z,7.77
2017-12-03T02:01:13.581Z,9.03
2017-12-03T02:03:45.950Z,8.00
2017-12-03T02:06:19.350Z,7.37
2017-12-03T02:08:52.039Z,8.70
2017-12-03T02:11:24.549Z,8.87
2017-12-03T02:13:57.901Z,9.60
2017-12-03T02:16:31.248Z,10.03
2017-12-03T02:19:04.084Z,9.83
2017-12-03T02:21:37.451Z,7.60
2017-12-03T02:24:11.407Z,8.93
2017-12-03T02:26:44.780Z,12.67
2017-12-03T02:29:17.453Z,11.07
2017-12-03T02:31:50.122Z,8.97
2017-12-03T02:34:22.616Z,9.90
2017-12-03T02:36:55.140Z,8.70
2017-12-03T02:39:28.604Z,9.53
2017-12-03T02:42:02.245Z,11.70
2017-12-03T02:44:35.776Z,10.50
2017-12-03T02:47:08.701Z,10.50
2017-12-03T02:49:42.685Z,9.27
2017-12-03T02:52:15.924Z,9.30
2017-12-03T02:54:48.505Z,9.27
2017-12-03T02:57:20.993Z,9.30
2017-12-03T02:59:54.235Z,11.07
2017-12-03T03:02:26.811Z,9.37
2017-12-03T03:04:59.282Z,9.03
2017-12-03T03:07:31.931Z,8.70
2017-12-03T03:10:05.282Z,10.00
2017-12-03T03:12:37.725Z,10.37
2017-12-03T03:15:11.846Z,7.83
2017-12-03T03:17:44.837Z,9.07
2017-12-03T03:20:18.221Z,9.10
2017-12-03T03:22:50.735Z,8.57
2017-12-03T03:25:24.034Z,10.17
2017-12-03T03:27:56.698Z,9.90
2017-12-03T03:30:29.289Z,8.90
2017-12-03T03:33:01.925Z,10.33
2017-12-03T03:35:35.891Z,9.47
2017-12-03T03:38:08.618Z,7.73
2017-12-03T03:40:41.082Z,8.90
2017-12-03T03:43:13.589Z,9.53
2017-12-03T03:45:46.845Z,8.53
2017-12-03T03:48:19.512Z,8.57
2017-12-03T03:50:52.039Z,8.40
2017-12-03T03:53:26.129Z,9.60
2017-12-03T03:55:59.192Z,7.77
2017-12-03T03:58:31.754Z,9.43
2017-12-03T04:01:05.878Z,9.40
2017-12-03T04:03:39.618Z,9.30
2017-12-03T04:06:12.410Z,6.87
2017-12-03T04:08:44.916Z,7.33
2017-12-03T04:11:18.441Z,7.33
2017-12-03T04:13:51.853Z,6.60
2017-12-03T04:16:25.105Z,6.27
2017-12-03T04:18:57.791Z,7.40
2017-12-03T04:21:31.242Z,7.57
2017-12-03T04:24:04.753Z,7.10
2017-12-03T04:26:37.446Z,8.67
2017-12-03T04:29:09.867Z,7.50
2017-12-03T04:31:42.296Z,8.40
2017-12-03T04:34:15.462Z,8.10
2017-12-03T04:36:48.291Z,6.00
2017-12-03T04:39:22.414Z,6.40
2017-12-03T04:41:55.311Z,6.00
2017-12-03T04:44:28.594Z,7.87
2017-12-03T04:47:01.777Z,6.90
2017-12-03T04:49:34.288Z,5.93
2017-12-03T04:52:07.647Z,6.00
2017-12-03T04:54:40.328Z,7.00
2017-12-03T04:57:13.760Z,5.97
2017-12-03T04:59:46.520Z,7.67
2017-12-03T05:02:19.218Z,6.57
2017-12-03T05:04:51.580Z,6.10
2017-12-03T05:07:24.485Z,6.80
2017-12-03T05:09:57.215Z,5.73
2017-12-03T05:12:30.376Z,5.60
2017-12-03T05:15:03.251Z,5.13
2017-12-03T05:17:36.588Z,6.57
2017-12-03T05:20:09.979Z,5.20
2017-12-03T05:22:42.804Z,6.93
2017-12-03T05:25:16.194Z,5.97
2017-12-03T05:27:49.565Z,6.40
2017-12-03T05:30:21.962Z,5.70
2017-12-03T05:32:55.476Z,7.30
2017-12-03T05:35:28.276Z,6.00
2017-12-03T05:38:00.678Z,8.03
2017-12-03T05:40:34.123Z,6.00
2017-12-03T05:43:07.475Z,8.67
2017-12-03T05:45:40.982Z,7.73
2017-12-03T05:48:13.577Z,7.10
2017-12-03T05:50:46.092Z,6.53
2017-12-03T05:53:19.294Z,7.83
2017-12-03T05:55:52.083Z,8.30
2017-12-03T05:58:25.329Z,7.37
2017-12-03T06:00:57.921Z,9.10
2017-12-03T06:03:31.902Z,8.57
2017-12-03T06:06:04.547Z,6.37
2017-12-03T06:08:37.268Z,6.83
2017-12-03T06:11:10.663Z,7.63
2017-12-03T06:13:43.617Z,7.77
2017-12-03T06:16:16.200Z,7.50
2017-12-03T06:18:48.676Z,6.53
2017-12-03T06:21:21.955Z,7.00
2017-12-03T06:23:54.400Z,7.80
2017-12-03T06:26:26.907Z,7.50
2017-12-03T06:28:59.539Z,5.80
2017-12-03T06:31:32.121Z,8.67
2017-12-03T06:34:05.298Z,6.93
2017-12-03T06:36:38.409Z,5.80
2017-12-03T06:39:12.396Z,6.90
2017-12-03T06:41:45.078Z,7.53
2017-12-03T06:44:19.208Z,5.13
2017-12-03T06:46:51.883Z,7.87
2017-12-03T06:49:24.393Z,8.77
2017-12-03T06:51:56.983Z,7.00
2017-12-03T06:54:29.558Z,8.80
2017-12-03T06:57:02.865Z,8.67
2017-12-03T06:59:35.327Z,5.97
2017-12-03T07:02:07.766Z,6.20
2017-12-03T07:04:41.941Z,6.30
2017-12-03T07:07:14.544Z,7.50
2017-12-03T07:09:47.039Z,5.70
2017-12-03T07:12:19.482Z,7.17
2017-12-03T07:14:51.948Z,7.47
2017-12-03T07:17:24.373Z,6.07
2017-12-03T07:19:56.869Z,7.87
2017-12-03T07:22:30.266Z,6.00
2017-12-03T07:25:03.699Z,7.10
2017-12-03T07:27:36.569Z,6.80
2017-12-03T07:30:09.113Z,8.40
2017-12-03T07:32:42.028Z,9.13
2017-12-03T07:35:14.579Z,8.13
2017-12-03T07:37:47.190Z,7.20
2017-12-03T07:40:20.683Z,7.77
2017-12-03T07:42:53.135Z,7.60
2017-12-03T07:45:25.584Z,6.73
2017-12-03T07:47:58.220Z,6.57
2017-12-03T07:50:30.675Z,8.87
2017-12-03T07:53:04.047Z,7.80
2017-12-03T07:55:37.436Z,7.00
2017-12-03T07:58:10.146Z,6.93
2017-12-03T08:00:42.880Z,7.93
2017-12-03T08:03:16.379Z,7.27
2017-12-03T08:05:49.719Z,7.73
2017-12-03T08:08:23.092Z,6.40
2017-12-03T08:10:55.856Z,7.00
2017-12-03T08:13:29.566Z,7.07
2017-12-03T08:16:02.867Z,6.40
2017-12-03T08:18:36.467Z,6.37
2017-12-03T08:21:09.672Z,6.73
2017-12-03T08:23:42.352Z,5.97
2017-12-03T08:26:15.654Z,8.37
2017-12-03T08:28:49.300Z,7.23
2017-12-03T08:31:22.466Z,5.03
2017-12-03T08:33:55.138Z,7.17
2017-12-03T08:36:28.502Z,7.10
2017-12-03T08:39:02.155Z,7.43
2017-12-03T08:41:34.816Z,7.37
2017-12-03T08:44:07.298Z,6.30
2017-12-03T08:46:40.753Z,5.40
2017-12-03T08:49:14.938Z,6.80
2017-12-03T08:51:48.385Z,7.07
2017-12-03T08:54:20.922Z,6.10
2017-12-03T08:56:53.304Z,4.87
2017-12-03T08:59:25.798Z,4.97
2017-12-03T09:01:58.943Z,5.07
2017-12-03T09:04:31.292Z,6.50
2017-12-03T09:07:04.596Z,6.50
2017-12-03T09:09:37.884Z,5.97
2017-12-03T09:12:11.081Z,6.07
2017-12-03T09:14:43.847Z,7.30
2017-12-03T09:17:16.363Z,6.27
2017-12-03T09:19:48.824Z,6.07
2017-12-03T09:22:22.191Z,5.30
2017-12-03T09:24:55.035Z,6.50
2017-12-03T09:27:28.462Z,4.30
2017-12-03T09:30:01.836Z,6.40
2017-12-03T09:32:35.066Z,6.83
2017-12-03T09:35:07.889Z,6.83
2017-12-03T09:37:41.241Z,6.43
2017-12-03T09:40:13.772Z,5.50
2017-12-03T09:42:46.233Z,6.73
2017-12-03T09:45:18.685Z,7.07
2017-12-03T09:47:51.445Z,6.70
2017-12-03T09:50:23.864Z,6.10
2017-12-03T09:52:56.648Z,5.40
2017-12-03T09:55:29.176Z,5.90
2017-12-03T09:58:01.754Z,5.50
2017-12-03T10:00:34.212Z,6.40
2017-12-03T10:03:06.750Z,5.83
2017-12-03T10:05:40.150Z,7.40
2017-12-03T10:08:13.504Z,6.53
2017-12-03T10:10:46.949Z,6.40
2017-12-03T10:13:20.431Z,6.00
2017-12-03T10:15:53.964Z,6.20
2017-12-03T10:18:26.683Z,8.43
2017-12-03T10:20:59.093Z,5.87
2017-12-03T10:23:31.864Z,7.57
2017-12-03T10:26:05.808Z,6.63
2017-12-03T10:28:38.535Z,7.97
2017-12-03T10:31:11.128Z,7.00
2017-12-03T10:33:43.642Z,6.33
2017-12-03T10:36:16.128Z,7.90
2017-12-03T10:38:48.675Z,8.03
2017-12-03T10:41:21.258Z,6.83
2017-12-03T10:43:54.648Z,7.57
2017-12-03T10:46:29.457Z,7.90
2017-12-03T10:49:02.732Z,9.30
2017-12-03T10:51:37.824Z,8.00
2017-12-03T10:54:10.550Z,7.73
2017-12-03T10:56:43.049Z,8.90
2017-12-03T10:59:16.788Z,8.60
2017-12-03T11:01:49.745Z,11.00
2017-12-03T11:04:22.900Z,10.20
2017-12-03T11:06:56.505Z,9.07
2017-12-03T11:09:29.318Z,7.87
2017-12-03T11:12:02.618Z,8.30
2017-12-03T11:14:35.180Z,7.83
2017-12-03T11:17:09.340Z,8.90
2017-12-03T11:19:42.042Z,7.90
2017-12-03T11:22:14.731Z,7.87
2017-12-03T11:24:58.305Z,7.80
2017-12-03T11:27:31.592Z,9.27
2017-12-03T11:30:05.009Z,7.67
2017-12-03T11:32:37.607Z,8.90
2017-12-03T11:35:11.657Z,10.13
2017-12-03T11:37:45.204Z,8.40
2017-12-03T11:40:17.771Z,7.60
2017-12-03T11:42:50.157Z,7.57
2017-12-03T11:45:22.594Z,7.60
2017-12-03T11:47:55.320Z,7.30
2017-12-03T11:50:27.894Z,7.30
2017-12-03T11:53:00.394Z,8.00
2017-12-03T11:55:33.069Z,7.60
2017-12-03T11:58:05.540Z,7.97
2017-12-03T12:00:38.091Z,7.40
2017-12-03T12:03:10.551Z,8.53
2017-12-03T12:05:43.216Z,9.20
2017-12-03T12:08:15.817Z,8.47
2017-12-03T12:10:48.487Z,7.43
2017-12-03T12:13:20.870Z,7.70
2017-12-03T12:16:00.899Z,8.00
2017-12-03T12:18:34.123Z,10.20
2017-12-03T12:21:06.483Z,8.60
2017-12-03T12:23:39.844Z,7.50
2017-12-03T12:26:12.509Z,8.10
2017-12-03T12:28:44.924Z,9.53
2017-12-03T12:31:17.543Z,8.97
2017-12-03T12:33:50.030Z,8.03
2017-12-03T12:36:22.510Z,7.83
2017-12-03T12:38:55.122Z,7.63
2017-12-03T12:41:28.312Z,8.70
2017-12-03T12:44:00.905Z,8.77
2017-12-03T12:46:34.304Z,7.17
2017-12-03T12:49:07.286Z,7.43
2017-12-03T12:51:39.890Z,7.70
2017-12-03T12:54:12.559Z,8.23
2017-12-03T12:56:44.977Z,6.23
2017-12-03T12:59:17.596Z,9.40
2017-12-03T13:01:50.991Z,7.40
2017-12-03T13:04:23.731Z,8.53
2017-12-03T13:06:57.640Z,6.70
2017-12-03T13:09:30.351Z,6.90
2017-12-03T13:12:02.973Z,7.33
2017-12-03T13:14:37.491Z,7.70
2017-12-03T13:17:10.810Z,7.20
2017-12-03T13:19:43.612Z,7.37
2017-12-03T13:22:16.894Z,8.27
2017-12-03T13:24:50.194Z,10.00
2017-12-03T13:27:23.971Z,8.60
2017-12-03T13:29:56.475Z,8.47
2017-12-03T13:32:29.089Z,9.70
2017-12-03T13:35:01.613Z,8.00
2017-12-03T13:37:33.981Z,7.33
2017-12-03T13:40:06.814Z,8.90
2017-12-03T13:42:41.131Z,8.53
2017-12-03T13:45:14.544Z,8.87
2017-12-03T13:47:47.196Z,9.13
2017-12-03T13:50:19.567Z,9.23
2017-12-03T13:52:52.661Z,8.30
2017-12-03T13:55:26.513Z,8.40
2017-12-03T13:57:58.939Z,8.70
2017-12-03T14:00:31.577Z,8.63
2017-12-03T14:03:04.000Z,9.63
2017-12-03T14:05:36.889Z,9.47
2017-12-03T14:08:10.094Z,8.67
2017-12-03T14:10:42.698Z,9.63
2017-12-03T14:13:15.154Z,8.97
2017-12-03T14:15:47.968Z,9.90
2017-12-03T14:18:21.722Z,9.47
2017-12-03T14:20:54.826Z,9.33
2017-12-03T14:23:28.309Z,9.27
2017-12-03T14:26:01.914Z,8.20
2017-12-03T14:28:35.654Z,10.53
2017-12-03T14:31:08.972Z,9.70
2017-12-03T14:33:41.449Z,9.70
2017-12-03T14:36:13.997Z,8.03
2017-12-03T14:38:46.889Z,7.47
2017-12-03T14:41:19.617Z,9.07
2017-12-03T14:43:52.065Z,9.60
2017-12-03T14:46:24.830Z,6.87
2017-12-03T14:48:57.401Z,9.17
2017-12-03T14:51:30.569Z,9.07
2017-12-03T14:54:03.932Z,8.97
2017-12-03T14:56:37.308Z,9.13
2017-12-03T14:59:10.698Z,8.10
2017-12-03T15:01:43.097Z,10.13
2017-12-03T15:04:15.561Z,7.90
2017-12-03T15:06:48.883Z,8.40
2017-12-03T15:09:22.409Z,8.40
2017-12-03T15:11:55.615Z,8.03
2017-12-03T15:14:28.842Z,9.40
2017-12-03T15:17:01.554Z,10.07
2017-12-03T15:19:34.972Z,11.47
2017-12-03T15:22:08.207Z,8.07
2017-12-03T15:24:41.139Z,8.10
2017-12-03T15:27:14.457Z,10.33
2017-12-03T15:29:46.956Z,8.60
2017-12-03T15:32:19.468Z,6.50
2017-12-03T15:34:52.109Z,9.03
2017-12-03T15:37:25.602Z,9.23
2017-12-03T15:39:59.078Z,8.10
2017-12-03T15:42:33.278Z,7.77
2017-12-03T15:45:06.121Z,8.60
2017-12-03T15:47:39.424Z,6.77
2017-12-03T15:50:12.069Z,8.10
2017-12-03T15:52:44.725Z,7.60
2017-12-03T15:55:17.186Z,10.93
2017-12-03T15:57:50.500Z,8.90
2017-12-03T16:00:23.272Z,6.80
2017-12-03T16:02:55.810Z,8.00
2017-12-03T16:05:28.825Z,8.93
2017-12-03T16:08:02.163Z,7.23
2017-12-03T16:10:34.790Z,8.27
2017-12-03T16:13:08.958Z,10.23
2017-12-03T16:15:41.758Z,7.13
2017-12-03T16:18:14.333Z,7.40
2017-12-03T16:20:47.462Z,8.97
2017-12-03T16:23:20.282Z,8.20
2017-12-03T16:25:52.866Z,5.90
2017-12-03T16:28:25.332Z,6.60
2017-12-03T16:30:58.833Z,7.80
2017-12-03T16:33:31.418Z,7.70
2017-12-03T16:36:04.241Z,8.20
2017-12-03T16:38:36.893Z,7.57
2017-12-03T16:41:10.219Z,7.87
2017-12-03T16:43:42.946Z,9.30
2017-12-03T16:46:16.988Z,9.37
2017-12-03T16:48:49.940Z,7.97
2017-12-03T16:51:22.432Z,7.57
2017-12-03T16:53:55.084Z,8.10
2017-12-03T16:56:27.612Z,8.80
2017-12-03T16:59:00.041Z,8.80
2017-12-03T17:01:33.458Z,8.10
2017-12-03T17:04:05.950Z,9.40
2017-12-03T17:06:52.409Z,9.40
2017-12-03T17:09:25.705Z,9.07
2017-12-03T17:11:59.273Z,8.90
2017-12-03T17:14:32.315Z,8.43
2017-12-03T17:17:06.129Z,8.20
2017-12-03T17:19:39.530Z,9.30
2017-12-03T17:22:13.170Z,9.13
2017-12-03T17:24:45.988Z,9.70
2017-12-03T17:27:19.368Z,10.50
2017-12-03T17:29:51.941Z,9.00
2017-12-03T17:32:26.059Z,11.30
2017-12-03T17:34:59.062Z,11.27
2017-12-03T17:37:32.334Z,10.23
2017-12-03T17:40:06.736Z,9.90
2017-12-03T17:42:41.394Z,9.73
2017-12-03T17:45:15.257Z,10.00
2017-12-03T17:47:48.329Z,9.90
2017-12-03T17:50:21.939Z,12.53
2017-12-03T17:52:54.728Z,8.60
2017-12-03T17:55:28.315Z,11.37
2017-12-03T17:58:02.471Z,9.53
2017-12-03T18:00:36.275Z,12.30
2017-12-03T18:03:11.557Z,10.90
2017-12-03T18:05:45.483Z,9.00
2017-12-03T18:08:20.311Z,11.20
2017-12-03T18:10:54.075Z,11.70
2017-12-03T18:13:27.383Z,10.60
2017-12-03T18:16:01.602Z,11.20
2017-12-03T18:18:36.077Z,8.60
2017-12-03T18:21:11.794Z,9.03
2017-12-03T18:23:47.493Z,11.60
2017-12-03T18:26:22.748Z,9.93
2017-12-03T18:28:58.151Z,15.67
2017-12-03T18:31:33.471Z,12.00
2017-12-03T18:34:08.416Z,12.80
2017-12-03T18:36:42.919Z,12.33
2017-12-03T18:39:18.404Z,11.07
2017-12-03T18:41:52.843Z,10.03
2017-12-03T18:44:29.485Z,10.47
2017-12-03T18:47:04.575Z,11.17
2017-12-03T18:49:40.187Z,12.07
2017-12-03T18:52:16.620Z,11.37
2017-12-03T18:54:52.802Z,12.17
2017-12-03T18:57:28.949Z,11.90
2017-12-03T19:00:04.457Z,10.90
2017-12-03T19:02:39.917Z,13.00
2017-12-03T19:05:15.174Z,11.40
2017-12-03T19:07:50.520Z,14.27
2017-12-03T19:10:25.998Z,12.50
2017-12-03T19:13:01.605Z,14.20
2017-12-03T19:15:37.046Z,11.93
2017-12-03T19:18:13.797Z,11.63
2017-12-03T19:20:49.781Z,12.70
2017-12-03T19:23:25.651Z,14.20
2017-12-03T19:26:01.247Z,13.47
2017-12-03T19:28:36.782Z,11.67
2017-12-03T19:31:12.497Z,13.67
2017-12-03T19:33:47.548Z,13.50
2017-12-03T19:36:23.315Z,14.30
2017-12-03T19:38:58.513Z,11.97
2017-12-03T19:41:33.865Z,12.40
2017-12-03T19:44:09.737Z,12.50
2017-12-03T19:46:45.912Z,10.97
2017-12-03T19:49:21.500Z,12.63
2017-12-03T19:52:02.002Z,13.63
2017-12-03T19:54:36.684Z,13.70
2017-12-03T19:57:11.194Z,11.63
2017-12-03T19:59:45.571Z,12.17
2017-12-03T20:02:20.255Z,12.93
2017-12-03T20:04:55.574Z,11.67
2017-12-03T20:07:31.611Z,12.43
2017-12-03T20:10:07.383Z,10.97
2017-12-03T20:12:43.341Z,10.40
2017-12-03T20:15:17.700Z,11.87
2017-12-03T20:17:53.419Z,11.90
2017-12-03T20:20:29.742Z,10.13
2017-12-03T20:23:05.362Z,12.43
2017-12-03T20:25:40.884Z,12.23
2017-12-03T20:28:16.289Z,11.70
2017-12-03T20:30:51.355Z,14.00
2017-12-03T20:33:26.660Z,15.30
2017-12-03T20:36:02.268Z,13.83
2017-12-03T20:38:37.910Z,16.20
2017-12-03T20:41:13.662Z,12.33
2017-12-03T20:43:49.162Z,13.77
2017-12-03T20:46:24.602Z,15.03
2017-12-03T20:49:00.063Z,13.43
2017-12-03T20:51:35.331Z,15.47
2017-12-03T20:54:12.314Z,13.93
2017-12-03T20:56:47.855Z,14.93
2017-12-03T20:59:22.234Z,14.70
2017-12-03T21:01:58.894Z,14.90
2017-12-03T21:04:34.928Z,13.63
2017-12-03T21:07:09.981Z,11.30
2017-12-03T21:09:44.552Z,15.90
2017-12-03T21:12:20.922Z,16.23
2017-12-03T21:14:55.507Z,14.77
2017-12-03T21:17:31.461Z,13.70
2017-12-03T21:20:06.250Z,16.43
2017-12-03T21:22:43.146Z,16.43
2017-12-03T21:25:18.511Z,14.40
2017-12-03T21:27:53.621Z,14.13
2017-12-03T21:30:28.067Z,12.57
2017-12-03T21:33:03.401Z,12.17
2017-12-03T21:35:38.121Z,12.40
2017-12-03T21:38:13.308Z,15.57
2017-12-03T21:40:48.847Z,14.40
2017-12-03T21:43:24.443Z,13.23
2017-12-03T21:45:59.375Z,12.13
2017-12-03T21:48:33.822Z,12.53
2017-12-03T21:51:08.928Z,11.83
2017-12-03T21:53:42.959Z,12.97
2017-12-03T21:56:17.963Z,9.80
2017-12-03T21:58:51.329Z,12.50
2017-12-03T22:01:24.661Z,12.07
2017-12-03T22:03:57.880Z,13.03
2017-12-03T22:06:31.280Z,11.93
2017-12-03T22:09:03.754Z,9.90
2017-12-03T22:11:36.187Z,11.07
2017-12-03T22:14:09.526Z,10.93
2017-12-03T22:16:42.086Z,10.20
2017-12-03T22:19:15.390Z,9.97
2017-12-03T22:21:47.927Z,10.20
2017-12-03T22:24:21.076Z,9.80
2017-12-03T22:26:53.864Z,9.33
2017-12-03T22:29:27.274Z,9.37
2017-12-03T22:31:59.804Z,9.13
2017-12-03T22:34:32.498Z,9.10
2017-12-03T22:37:05.616Z,9.13
2017-12-03T22:39:38.232Z,8.80
2017-12-03T22:42:10.634Z,8.80
2017-12-03T22:44:44.665Z,8.07
2017-12-03T22:47:18.293Z,8.90
2017-12-03T22:49:50.985Z,8.00
2017-12-03T22:52:24.282Z,7.20
2017-12-03T22:54:57.164Z,8.73
2017-12-03T22:57:29.833Z,7.67
2017-12-03T23:00:03.131Z,8.00
2017-12-03T23:02:35.801Z,6.40
2017-12-03T23:05:08.420Z,8.43
2017-12-03T23:07:43.081Z,7.90
2017-12-03T23:10:16.219Z,7.43
2017-12-03T23:12:49.773Z,6.80
2017-12-03T23:15:22.679Z,6.67
2017-12-03T23:17:55.967Z,8.50
2017-12-03T23:20:28.519Z,7.00
2017-12-03T23:23:01.126Z,6.30
2017-12-03T23:25:33.676Z,6.57
2017-12-03T23:28:07.403Z,6.77
2017-12-03T23:30:40.428Z,6.83
2017-12-03T23:33:14.012Z,7.37
2017-12-03T23:35:48.092Z,7.27
2017-12-03T23:38:21.654Z,6.30
2017-12-03T23:40:54.347Z,5.70
2017-12-03T23:43:26.841Z,7.17
2017-12-03T23:46:00.158Z,5.50
2017-12-03T23:48:32.912Z,6.50
2017-12-03T23:51:06.226Z,5.93
2017-12-03T23:53:39.593Z,7.30
2017-12-03T23:56:12.299Z,6.13
2017-12-03T23:58:44.817Z,6.60
